Time;durP1;ratioP1;P1;durP2;ratioP2;P2;SDS_P1;SDS_P2;PMS_P1;PMS_P2;Temp;Humidity;BMP_temperature;BMP_pressure;BME280_temperature;BME280_humidity;BME280_pressure;Samples;Min_cycle;Max_cycle;Signal;HPM_P1;HPM_P2
2023/02/18 00:01:42;;;;;;;106.60;42.40;;;;;;;16.49;34.42;99590.67;108077;1254;60061;-67
2023/02/18 00:04:12;;;;;;;105.20;41.10;;;;;;;16.49;34.31;99586.02;108082;1256;71635;-65
2023/02/18 00:06:40;;;;;;;94.00;41.30;;;;;;;16.36;34.76;99577.92;108090;1254;70609;-67
2023/02/18 00:09:09;;;;;;;105.30;45.70;;;;;;;16.85;33.86;99570.03;108078;1256;73871;-66
2023/02/18 00:11:38;;;;;;;111.50;44.80;;;;;;;16.71;34.12;99562.88;108070;1254;62254;-65
2023/02/18 00:14:11;;;;;;;115.50;46.80;;;;;;;16.72;34.17;99555.02;108150;1254;61738;-65
2023/02/18 00:16:41;;;;;;;113.80;46.40;;;;;;;17.22;33.53;99543.98;108171;1254;71806;-65
2023/02/18 00:19:15;;;;;;;110.60;44.80;;;;;;;17.35;33.40;99542.08;108162;1254;69591;-65
2023/02/18 00:21:44;;;;;;;87.50;35.70;;;;;;;17.07;33.69;99528.73;108074;1253;72597;-65
2023/02/18 00:24:14;;;;;;;107.10;43.20;;;;;;;16.44;34.77;99523.67;108077;1254;62421;-66
2023/02/18 00:26:42;;;;;;;109.90;43.80;;;;;;;16.30;35.37;99513.52;108129;1254;60162;-65
2023/02/18 00:29:10;;;;;;;105.10;41.30;;;;;;;17.54;33.42;99504.48;108053;1255;75112;-66
2023/02/18 00:31:39;;;;;;;114.80;46.20;;;;;;;17.34;33.62;99497.77;108048;1255;71571;-65
2023/02/18 00:34:09;;;;;;;108.80;41.90;;;;;;;16.77;34.66;99495.27;108080;1256;73891;-65
2023/02/18 00:36:37;;;;;;;117.60;46.00;;;;;;;17.15;34.03;99482.40;108094;1255;62138;-65
2023/02/18 00:39:07;;;;;;;95.10;36.10;;;;;;;17.22;33.99;99469.10;108091;1256;60328;-65
2023/02/18 00:41:35;;;;;;;112.20;44.40;;;;;;;17.50;33.57;99458.61;108065;1255;74788;-66
2023/02/18 00:44:04;;;;;;;117.10;47.60;;;;;;;17.24;33.94;99458.47;108096;1256;71528;-64
2023/02/18 00:46:34;;;;;;;114.10;44.10;;;;;;;17.36;33.92;99446.21;108077;1256;71159;-65
2023/02/18 00:49:03;;;;;;;104.10;39.70;;;;;;;17.03;34.43;99437.73;107978;1255;61928;-66
2023/02/18 00:51:32;;;;;;;117.00;44.90;;;;;;;17.08;34.51;99425.81;108053;1255;60305;-65
2023/02/18 00:54:04;;;;;;;119.80;49.10;;;;;;;17.16;34.48;99418.95;108067;1255;73831;-65
2023/02/18 00:56:33;;;;;;;133.90;48.10;;;;;;;17.53;33.94;99407.49;108117;1256;71267;-66
2023/02/18 00:59:01;;;;;;;119.70;45.70;;;;;;;16.99;34.67;99402.18;108130;1255;72185;-64
2023/02/18 01:01:30;;;;;;;135.50;49.10;;;;;;;17.21;34.60;99391.10;108027;1255;62447;-64
2023/02/18 01:03:58;;;;;;;99.20;36.60;;;;;;;17.79;33.86;99379.93;108006;1256;61381;-65
2023/02/18 01:06:27;;;;;;;100.80;35.30;;;;;;;17.22;34.66;99373.84;108022;1256;74083;-66
2023/02/18 01:08:55;;;;;;;131.60;49.80;;;;;;;17.28;34.72;99365.75;108087;1256;71245;-66
2023/02/18 01:11:23;;;;;;;108.00;40.60;;;;;;;17.46;34.46;99361.70;107951;1255;73586;-66
2023/02/18 01:13:51;;;;;;;116.90;43.60;;;;;;;17.07;34.99;99348.89;108029;1254;62062;-64
2023/02/18 01:16:22;;;;;;;103.20;37.20;;;;;;;17.17;35.14;99338.41;107905;1255;61220;-65
2023/02/18 01:18:50;;;;;;;129.60;48.00;;;;;;;17.13;35.20;99336.58;108002;1256;75156;-64
2023/02/18 01:21:18;;;;;;;137.80;47.60;;;;;;;17.05;35.27;99326.89;107973;1255;71216;-65
2023/02/18 01:23:48;;;;;;;101.60;38.20;;;;;;;17.50;34.70;99318.30;107975;1255;72918;-65
2023/02/18 01:26:16;;;;;;;136.10;50.10;;;;;;;16.84;35.79;99307.75;107911;1256;62125;-64
2023/02/18 01:28:45;;;;;;;137.90;49.90;;;;;;;17.09;35.50;99299.61;108043;1254;61324;-66
2023/02/18 01:31:13;;;;;;;135.40;44.10;;;;;;;16.46;36.57;99290.70;108007;1254;73151;-66
2023/02/18 01:33:44;;;;;;;87.90;30.20;;;;;;;16.85;36.05;99282.48;108033;1254;69461;-65
2023/02/18 01:36:13;;;;;;;136.80;46.20;;;;;;;17.22;35.51;99266.98;108002;1258;72690;-65
2023/02/18 01:38:41;;;;;;;127.30;48.80;;;;;;;17.55;34.90;99260.71;108036;1254;60778;-65
2023/02/18 01:41:10;;;;;;;142.20;51.50;;;;;;;17.27;35.23;99257.11;108158;1254;60957;-67
2023/02/18 01:43:38;;;;;;;123.80;42.90;;;;;;;17.68;34.68;99243.89;108012;1254;74063;-65
2023/02/18 01:46:18;;;;;;;141.30;49.70;;;;;;;17.38;35.08;99236.52;107946;1254;71673;-66
2023/02/18 01:48:55;;;;;;;127.20;42.30;;;;;;;17.26;35.32;99228.42;108072;1254;71243;-66
2023/02/18 01:51:27;;;;;;;125.10;44.00;;;;;;;17.08;35.61;99221.02;108034;1254;62424;-65
2023/02/18 01:54:05;;;;;;;129.20;45.10;;;;;;;17.17;35.31;99211.70;108109;1254;60398;-65
2023/02/18 01:56:45;;;;;;;127.70;42.80;;;;;;;16.96;35.94;99202.70;108101;1254;75401;-65
2023/02/18 01:59:16;;;;;;;116.40;39.40;;;;;;;17.46;35.19;99194.18;108092;1254;69143;-64
2023/02/18 02:01:45;;;;;;;139.90;46.70;;;;;;;17.25;35.49;99187.70;108085;1255;72738;-64
2023/02/18 02:04:13;;;;;;;137.40;45.60;;;;;;;17.03;35.82;99171.20;108041;1256;61443;-64
2023/02/18 02:06:42;;;;;;;131.30;43.90;;;;;;;17.41;35.38;99167.95;108074;1254;60854;-64
2023/02/18 02:09:14;;;;;;;120.10;35.20;;;;;;;17.96;34.36;99159.80;108037;1255;74834;-65
2023/02/18 02:12:22;;;;;;;138.10;47.20;;;;;;;17.30;35.45;99154.16;107879;1258;69931;-63
2023/02/18 02:15:21;;;;;;;133.40;45.70;;;;;;;16.72;36.48;99150.00;107966;1256;71508;-62
2023/02/18 02:18:31;;;;;;;126.60;41.00;;;;;;;17.60;35.13;99140.02;107960;1254;62134;-64
2023/02/18 02:21:22;;;;;;;135.40;44.10;;;;;;;17.49;35.22;99138.44;107924;1254;61267;-66
2023/02/18 02:24:24;;;;;;;137.20;44.00;;;;;;;17.97;34.46;99129.31;108024;1256;73776;-64
2023/02/18 02:26:59;;;;;;;129.10;45.30;;;;;;;18.32;33.98;99121.46;107986;1256;71209;-65
2023/02/18 02:29:37;;;;;;;126.90;41.80;;;;;;;18.77;33.31;99112.92;108061;1254;73399;-65
2023/02/18 02:32:15;;;;;;;126.70;42.80;;;;;;;18.98;32.97;99106.71;108027;1253;62050;-67
2023/02/18 02:35:10;;;;;;;126.20;42.90;;;;;;;18.55;33.36;99099.93;108000;1254;61269;-66
2023/02/18 02:37:54;;;;;;;130.60;43.70;;;;;;;18.29;33.93;99090.97;108109;1254;73526;-66
2023/02/18 02:40:23;;;;;;;124.30;44.20;;;;;;;18.20;33.97;99082.48;108082;1254;71509;-65
2023/02/18 02:43:14;;;;;;;112.60;39.00;;;;;;;18.25;33.92;99069.75;108004;1257;72106;-64
2023/02/18 02:46:08;;;;;;;120.60;44.30;;;;;;;17.84;34.53;99063.14;108102;1254;62105;-67
2023/02/18 02:48:55;;;;;;;117.50;40.70;;;;;;;17.84;34.62;99054.57;108055;1254;61236;-65
2023/02/18 02:51:26;;;;;;;116.10;45.90;;;;;;;17.80;34.65;99049.04;107980;1254;74863;-65
2023/02/18 02:54:12;;;;;;;127.10;43.70;;;;;;;18.15;34.15;99048.60;108090;1254;71291;-65
2023/02/18 02:56:40;;;;;;;114.50;39.70;;;;;;;17.85;34.71;99044.55;107966;1254;73763;-68
2023/02/18 02:59:13;;;;;;;111.50;39.70;;;;;;;17.81;34.90;99044.54;108149;1254;61066;-65
2023/02/18 03:02:02;;;;;;;121.40;41.80;;;;;;;17.43;35.30;99041.25;108095;1254;61324;-65
2023/02/18 03:04:35;;;;;;;124.20;45.60;;;;;;;17.39;35.33;99031.16;108174;1254;72772;-65
2023/02/18 03:07:17;;;;;;;113.40;41.80;;;;;;;16.87;36.17;99029.39;108161;1254;70414;-64
2023/02/18 03:10:04;;;;;;;104.10;38.20;;;;;;;17.16;35.75;99023.61;108125;1255;73802;-66
2023/02/18 03:12:56;;;;;;;108.80;37.50;;;;;;;17.07;36.11;99022.30;108087;1254;62164;-65
2023/02/18 03:16:05;;;;;;;117.00;40.70;;;;;;;17.11;36.22;99009.72;108106;1254;60945;-65
2023/02/18 03:18:44;;;;;;;101.50;38.20;;;;;;;16.84;36.56;99007.81;107901;1254;73910;-64
2023/02/18 03:21:52;;;;;;;115.40;41.70;;;;;;;16.83;36.84;99000.40;108152;1254;71626;-64
2023/02/18 03:24:29;;;;;;;135.40;43.90;;;;;;;18.00;35.00;98994.11;108027;1257;73855;-65
2023/02/18 03:30:21;;;;;;;109.60;39.60;;;;;;;13.03;44.89;98987.96;104840;1294;600813;-66
2023/02/18 03:32:55;;;;;;;123.40;42.20;;;;;;;15.26;40.04;98980.73;107309;1270;61336;-66
2023/02/18 03:35:23;;;;;;;75.10;27.00;;;;;;;15.60;39.59;98977.98;107324;1266;60704;-65
2023/02/18 03:38:04;;;;;;;107.60;41.10;;;;;;;15.01;40.92;98974.92;107288;1270;70999;-64
2023/02/18 03:40:33;;;;;;;95.50;34.40;;;;;;;16.41;38.59;98956.84;107343;1264;71810;-64
2023/02/18 03:43:02;;;;;;;137.70;46.40;;;;;;;16.20;38.61;98960.07;107211;1263;191297;-65
2023/02/18 03:45:31;;;;;;;108.80;37.60;;;;;;;16.03;39.09;98949.90;107379;1263;59943;-65
2023/02/18 03:48:02;;;;;;;85.80;27.80;;;;;;;16.06;39.22;98944.55;107416;1262;60073;-64
2023/02/18 03:50:30;;;;;;;122.20;46.30;;;;;;;16.09;39.12;98943.79;107403;1263;73375;-62
2023/02/18 03:52:58;;;;;;;72.70;24.00;;;;;;;16.29;38.72;98931.56;107398;1263;70000;-66
2023/02/18 03:55:27;;;;;;;116.80;43.30;;;;;;;16.27;38.89;98922.33;107359;1263;73438;-64
2023/02/18 03:57:55;;;;;;;109.60;37.10;;;;;;;16.38;38.41;98910.09;107371;1263;62259;-62
2023/02/18 04:00:23;;;;;;;95.00;35.70;;;;;;;16.42;38.48;98906.96;107394;1264;61229;-65
2023/02/18 04:02:51;;;;;;;95.90;31.80;;;;;;;16.53;38.44;98899.86;107417;1263;73088;-64
2023/02/18 04:05:19;;;;;;;118.60;42.50;;;;;;;16.98;37.47;98892.28;107438;1262;70431;-66
2023/02/18 04:07:48;;;;;;;114.40;43.40;;;;;;;16.08;39.06;98882.93;107433;1266;73868;-66
2023/02/18 04:10:21;;;;;;;111.90;40.60;;;;;;;16.20;38.95;98877.02;107405;1263;61300;-64
2023/02/18 04:12:49;;;;;;;120.00;43.00;;;;;;;17.00;37.73;98873.34;107420;1266;61358;-65
2023/02/18 04:15:17;;;;;;;117.10;44.30;;;;;;;16.91;37.67;98867.86;107440;1263;73771;-65
2023/02/18 04:17:46;;;;;;;88.00;29.70;;;;;;;16.97;37.64;98861.73;107471;1267;71290;-66
2023/02/18 04:20:15;;;;;;;101.60;35.90;;;;;;;16.52;38.44;98867.02;107612;1263;72681;-64
2023/02/18 04:22:44;;;;;;;71.60;28.90;;;;;;;16.70;38.33;98860.61;107655;1262;60465;-66
2023/02/18 04:25:13;;;;;;;102.20;38.30;;;;;;;17.06;37.50;98855.84;107579;1262;60655;-64
2023/02/18 04:27:41;;;;;;;100.30;38.40;;;;;;;17.07;37.59;98842.70;107399;1263;73624;-66
2023/02/18 04:30:10;;;;;;;100.10;37.80;;;;;;;17.37;37.06;98834.08;107463;1263;71313;-65
2023/02/18 04:32:41;;;;;;;86.40;34.10;;;;;;;17.30;37.19;98833.27;107437;1263;72008;-66
2023/02/18 04:35:09;;;;;;;85.40;31.10;;;;;;;16.89;38.00;98825.50;107443;1263;62243;-65
2023/02/18 04:37:37;;;;;;;86.10;33.20;;;;;;;17.12;37.59;98818.96;107463;1263;61329;-67
2023/02/18 04:40:06;;;;;;;88.20;31.10;;;;;;;17.52;37.00;98812.35;107407;1268;72132;-66
2023/02/18 04:42:34;;;;;;;98.70;35.40;;;;;;;17.47;36.91;98811.41;107487;1263;71681;-65
2023/02/18 04:45:04;;;;;;;98.50;37.50;;;;;;;17.79;36.46;98792.06;107455;1263;73004;-66
2023/02/18 04:47:32;;;;;;;103.50;38.30;;;;;;;18.12;35.99;98784.53;107389;1264;60255;-64
2023/02/18 04:50:01;;;;;;;92.50;36.70;;;;;;;18.83;34.82;98793.08;107311;1264;59950;-65
2023/02/18 04:52:29;;;;;;;88.80;32.30;;;;;;;18.79;34.76;98786.11;107359;1263;74346;-65
2023/02/18 04:54:57;;;;;;;95.60;38.30;;;;;;;18.37;35.50;98780.19;107370;1263;71279;-66
2023/02/18 04:57:25;;;;;;;89.40;35.90;;;;;;;18.99;34.49;98769.56;107354;1263;73842;-66
2023/02/18 04:59:55;;;;;;;85.10;35.30;;;;;;;18.82;34.73;98762.61;107363;1267;62058;-65
2023/02/18 05:02:23;;;;;;;97.50;33.50;;;;;;;18.29;35.45;98765.80;107366;1263;60404;-66
2023/02/18 05:04:54;;;;;;;89.80;35.80;;;;;;;18.18;35.82;98755.06;107521;1264;74305;-64
2023/02/18 05:07:23;;;;;;;86.10;30.70;;;;;;;18.60;35.37;98747.55;107581;1263;70353;-62
2023/02/18 05:09:51;;;;;;;109.70;42.80;;;;;;;19.09;34.49;98743.02;107549;1265;73640;-67
2023/02/18 05:12:19;;;;;;;102.30;40.30;;;;;;;19.65;33.56;98745.86;107526;1264;61469;-66
2023/02/18 05:14:47;;;;;;;103.00;38.70;;;;;;;19.66;33.73;98744.40;107631;1261;61709;-66
2023/02/18 05:17:15;;;;;;;89.90;35.70;;;;;;;19.02;34.55;98734.86;107564;1264;74278;-65
2023/02/18 05:19:43;;;;;;;84.00;34.50;;;;;;;19.24;34.25;98727.52;107600;1264;71297;-64
2023/02/18 05:22:12;;;;;;;107.90;38.70;;;;;;;18.59;35.28;98724.65;107619;1260;72913;-66
2023/02/18 05:24:40;;;;;;;108.80;44.40;;;;;;;19.04;34.84;98715.31;107639;1260;62121;-66
2023/02/18 05:27:08;;;;;;;102.70;41.70;;;;;;;19.38;34.25;98713.20;107572;1260;61661;-66
2023/02/18 05:29:37;;;;;;;86.20;32.50;;;;;;;18.87;34.91;98705.58;107464;1260;73874;-67
2023/02/18 05:32:05;;;;;;;93.20;39.60;;;;;;;18.29;36.10;98699.89;107464;1266;71336;-67
2023/02/18 05:34:33;;;;;;;88.80;33.50;;;;;;;18.17;36.38;98697.27;107472;1265;73669;-66
2023/02/18 05:37:02;;;;;;;103.10;42.90;;;;;;;18.47;35.93;98685.96;107512;1261;62151;-65
2023/02/18 05:39:30;;;;;;;97.70;39.90;;;;;;;18.29;36.27;98689.80;107458;1260;59762;-67
2023/02/18 05:41:58;;;;;;;108.50;42.20;;;;;;;18.49;35.91;98693.50;107527;1263;72556;-66
2023/02/18 05:44:32;;;;;;;94.60;35.50;;;;;;;18.15;36.47;98684.64;107513;1260;71316;-65
2023/02/18 05:47:06;;;;;;;96.40;39.60;;;;;;;18.07;36.74;98674.05;107566;1262;73684;-66
2023/02/18 05:49:42;;;;;;;101.10;38.50;;;;;;;18.96;35.41;98674.65;107587;1266;62260;-67
2023/02/18 05:52:11;;;;;;;85.80;34.90;;;;;;;19.14;35.22;98672.60;107488;1260;61320;-65
2023/02/18 05:54:39;;;;;;;93.80;38.40;;;;;;;18.85;35.55;98659.18;107558;1261;73492;-65
2023/02/18 05:57:07;;;;;;;92.90;37.70;;;;;;;18.76;35.88;98655.54;107450;1261;71577;-66
2023/02/18 05:59:35;;;;;;;92.40;38.70;;;;;;;18.83;35.84;98661.30;107429;1266;73691;-66
2023/02/18 06:02:03;;;;;;;99.20;40.90;;;;;;;19.40;34.79;98651.42;107554;1262;61406;-66
2023/02/18 06:04:32;;;;;;;104.10;41.30;;;;;;;19.08;35.27;98653.08;107482;1260;60718;-66
2023/02/18 06:07:01;;;;;;;98.20;39.20;;;;;;;19.14;35.27;98650.71;107521;1261;71009;-64
2023/02/18 06:09:29;;;;;;;108.80;38.30;;;;;;;19.71;34.44;98646.09;107479;1261;68136;-65
2023/02/18 06:11:59;;;;;;;99.80;38.00;;;;;;;19.69;34.56;98642.05;107502;1260;71684;-65
2023/02/18 06:14:30;;;;;;;94.30;37.50;;;;;;;19.56;34.78;98639.07;107542;1261;62493;-66
2023/02/18 06:16:58;;;;;;;97.50;41.90;;;;;;;19.86;34.39;98634.70;107496;1260;61506;-66
2023/02/18 06:19:27;;;;;;;98.00;39.30;;;;;;;19.85;34.68;98634.38;107464;1261;74280;-66
2023/02/18 06:21:55;;;;;;;92.80;39.40;;;;;;;19.25;35.48;98630.33;107475;1265;71211;-67
2023/02/18 06:24:23;;;;;;;98.10;40.90;;;;;;;19.59;35.19;98629.48;107455;1266;73575;-66
2023/02/18 06:26:52;;;;;;;94.60;39.40;;;;;;;19.34;35.75;98626.23;107498;1260;61265;-67
2023/02/18 06:29:21;;;;;;;106.90;43.40;;;;;;;19.72;35.25;98621.95;107523;1260;59994;-67
2023/02/18 06:31:49;;;;;;;95.50;40.00;;;;;;;19.92;35.01;98621.57;107615;1263;74118;-66
2023/02/18 06:34:19;;;;;;;91.70;38.90;;;;;;;19.85;35.15;98615.16;107620;1259;69116;-66
2023/02/18 06:36:47;;;;;;;98.70;43.10;;;;;;;20.08;34.84;98619.33;107942;1257;72170;-67
2023/02/18 06:39:17;;;;;;;96.60;42.20;;;;;;;20.17;34.67;98627.81;107943;1256;62184;-65
2023/02/18 06:41:46;;;;;;;108.70;46.20;;;;;;;19.81;35.24;98624.42;107964;1258;61356;-65
2023/02/18 06:44:15;;;;;;;95.20;39.30;;;;;;;19.91;35.28;98626.36;107874;1260;73856;-66
2023/02/18 06:46:43;;;;;;;102.90;43.90;;;;;;;19.81;35.77;98619.27;107966;1258;70107;-65
2023/02/18 06:49:12;;;;;;;103.70;43.20;;;;;;;19.92;35.67;98622.48;107977;1257;73618;-65
2023/02/18 06:51:41;;;;;;;93.80;40.30;;;;;;;19.83;36.02;98611.63;107906;1256;62351;-67
2023/02/18 06:54:10;;;;;;;94.60;43.20;;;;;;;19.63;36.40;98611.87;108028;1256;59554;-65
2023/02/18 06:56:38;;;;;;;96.40;44.80;;;;;;;20.09;36.37;98608.98;107974;1256;73517;-67
2023/02/18 06:59:07;;;;;;;79.70;35.80;;;;;;;20.44;35.94;98603.37;107777;1257;71306;-66
2023/02/18 09:09:27;;;;;;;7.00;2.60;;;;;;;15.73;62.22;98627.18;105701;1283;613428;-68
2023/02/18 09:11:59;;;;;;;10.30;2.80;;;;;;;17.07;51.30;98624.20;107194;1266;139664;-68
2023/02/18 09:14:29;;;;;;;9.10;2.90;;;;;;;17.24;51.10;98627.48;107422;1266;60459;-65
2023/02/18 09:16:57;;;;;;;7.40;2.60;;;;;;;17.32;49.62;98627.98;107336;1266;73133;-66
2023/02/18 09:19:26;;;;;;;7.40;2.80;;;;;;;17.44;48.58;98624.84;107496;1266;70375;-67
2023/02/18 09:21:56;;;;;;;5.30;2.20;;;;;;;17.59;47.82;98622.41;107397;1266;73428;-67
2023/02/18 09:24:28;;;;;;;9.20;2.60;;;;;;;17.43;48.01;98621.40;107419;1266;61294;-66
2023/02/18 09:26:56;;;;;;;7.40;3.20;;;;;;;17.26;49.29;98622.70;108152;1254;61497;-67
2023/02/18 09:29:24;;;;;;;6.80;3.10;;;;;;;17.28;49.48;98623.98;108083;1257;73395;-65
2023/02/18 09:31:52;;;;;;;7.00;2.80;;;;;;;16.97;50.84;98623.48;108148;1258;68315;-66
2023/02/18 09:34:21;;;;;;;10.00;2.80;;;;;;;16.97;50.75;98617.06;107966;1254;72702;-67
2023/02/18 09:36:50;;;;;;;8.10;3.50;;;;;;;16.90;50.71;98617.48;108087;1254;63370;-67
2023/02/18 09:39:19;;;;;;;9.10;3.30;;;;;;;16.59;51.33;98615.52;108118;1254;61551;-66
2023/02/18 09:41:49;;;;;;;7.80;3.40;;;;;;;16.38;52.12;98619.65;108099;1254;74300;-64
2023/02/18 09:44:33;;;;;;;9.10;3.40;;;;;;;16.69;51.67;98615.39;108128;1254;70465;-68
2023/02/18 09:47:10;;;;;;;9.50;3.50;;;;;;;16.41;51.74;98618.14;108103;1254;72918;-65
2023/02/18 09:49:40;;;;;;;9.30;3.90;;;;;;;16.41;51.57;98616.21;108073;1254;62217;-67
2023/02/18 09:52:12;;;;;;;9.40;2.80;;;;;;;16.46;50.98;98627.27;108003;1254;61480;-66
2023/02/18 09:54:41;;;;;;;8.70;3.20;;;;;;;16.22;52.08;98625.62;108113;1254;73834;-65
2023/02/18 09:57:17;;;;;;;7.70;3.80;;;;;;;16.08;52.95;98629.05;108137;1254;71254;-69
2023/02/18 09:59:45;;;;;;;8.60;3.10;;;;;;;16.15;52.77;98620.14;107872;1255;73463;-66
2023/02/18 10:02:16;;;;;;;9.80;3.30;;;;;;;16.49;51.24;98618.38;107947;1254;62409;-65
2023/02/18 10:04:50;;;;;;;10.20;3.60;;;;;;;16.79;50.21;98617.98;108111;1255;59886;-67
2023/02/18 10:07:32;;;;;;;10.60;3.50;;;;;;;17.39;50.63;98615.89;108175;1259;74523;-67
2023/02/18 10:10:02;;;;;;;15.00;3.90;;;;;;;18.05;48.38;98617.13;108054;1258;68684;-67
2023/02/18 10:12:31;;;;;;;;;;;;;;;18.94;47.29;98614.23;108085;1256;74164;-68
2023/02/18 10:15:02;;;;;;;10.30;3.50;;;;;;;19.37;45.84;98617.23;108009;1256;62935;-67
2023/02/18 10:17:36;;;;;;;8.80;2.70;;;;;;;19.56;42.82;98612.54;108087;1255;61400;-67
2023/02/18 10:20:06;;;;;;;13.20;3.50;;;;;;;19.92;42.09;98609.67;107847;1255;72733;-66
2023/02/18 10:22:35;;;;;;;9.00;2.60;;;;;;;20.08;41.64;98609.52;107983;1255;71662;-67
2023/02/18 10:25:04;;;;;;;9.90;2.60;;;;;;;19.98;41.24;98611.36;107998;1257;71187;-64
2023/02/18 10:27:36;;;;;;;8.00;2.60;;;;;;;19.74;41.34;98612.00;107886;1256;61328;-66
2023/02/18 10:30:13;;;;;;;9.50;2.50;;;;;;;19.23;41.56;98614.84;108014;1257;61177;-67
2023/02/18 10:32:43;;;;;;;12.80;3.10;;;;;;;19.42;41.56;98618.09;108055;1256;74499;-67
2023/02/18 10:35:19;;;;;;;9.70;2.50;;;;;;;19.20;42.33;98618.83;108046;1256;70325;-66
2023/02/18 10:37:55;;;;;;;8.30;3.00;;;;;;;18.90;42.28;98623.70;107850;1254;73519;-67
2023/02/18 10:40:26;;;;;;;13.90;3.40;;;;;;;18.79;42.84;98623.52;108036;1257;59904;-67
2023/02/18 10:43:13;;;;;;;10.30;3.10;;;;;;;18.74;43.03;98624.86;108079;1255;61085;-67
2023/02/18 10:45:55;;;;;;;12.70;3.60;;;;;;;18.83;42.56;98621.48;108060;1257;72804;-67
2023/02/18 10:48:51;;;;;;;7.40;3.00;;;;;;;18.70;42.62;98618.66;108004;1256;70934;-68
2023/02/18 10:51:23;;;;;;;8.20;3.00;;;;;;;17.76;43.79;98626.21;107990;1259;73696;-67
2023/02/18 10:53:52;;;;;;;7.60;2.90;;;;;;;17.55;43.66;98627.02;108060;1257;62169;-67
2023/02/18 10:56:42;;;;;;;11.60;3.30;;;;;;;17.50;43.69;98627.85;108019;1256;59604;-67
2023/02/18 10:59:24;;;;;;;11.00;3.50;;;;;;;17.11;44.34;98628.28;108072;1257;73278;-67
2023/02/18 11:02:00;;;;;;;15.00;3.30;;;;;;;17.47;43.65;98624.55;107965;1258;69214;-69
2023/02/18 11:04:39;;;;;;;7.80;2.80;;;;;;;17.39;43.36;98621.76;107984;1259;72807;-67
2023/02/18 11:07:16;;;;;;;9.70;3.30;;;;;;;17.75;43.04;98623.13;108146;1257;60266;-68
2023/02/18 11:10:17;;;;;;;13.00;2.70;;;;;;;17.71;42.75;98621.04;108043;1255;61601;-67
2023/02/18 11:12:48;;;;;;;10.70;3.10;;;;;;;17.49;42.89;98613.78;108075;1257;73032;-66
2023/02/18 11:15:23;;;;;;;9.10;2.80;;;;;;;17.53;42.31;98617.30;107987;1257;70715;-68
2023/02/18 11:17:54;;;;;;;6.70;2.50;;;;;;;17.69;41.53;98610.86;108059;1257;71727;-66
2023/02/18 11:20:30;;;;;;;7.30;2.90;;;;;;;18.11;41.32;98608.46;108162;1257;63010;-68
2023/02/18 11:22:59;;;;;;;5.30;2.40;;;;;;;18.34;41.50;98606.01;108058;1256;61343;-67
2023/02/18 11:25:32;;;;;;;10.90;2.90;;;;;;;18.60;40.30;98605.83;107975;1257;72393;-67
2023/02/18 11:28:05;;;;;;;7.90;2.50;;;;;;;18.72;39.59;98604.00;108096;1259;70127;-67
2023/02/18 11:30:40;;;;;;;8.70;2.80;;;;;;;18.67;38.86;98606.48;108154;1258;72910;-67
2023/02/18 11:33:15;;;;;;;8.80;2.70;;;;;;;18.83;38.11;98604.45;108029;1257;60132;-66
2023/02/18 11:35:53;;;;;;;9.10;2.40;;;;;;;18.96;37.97;98602.43;107957;1255;61210;-67
2023/02/18 11:38:23;;;;;;;8.50;2.80;;;;;;;18.71;37.90;98609.65;107903;1256;73957;-67
2023/02/18 11:41:02;;;;;;;10.70;2.90;;;;;;;18.47;38.01;98604.84;108009;1257;70681;-67
2023/02/18 11:43:31;;;;;;;12.00;3.20;;;;;;;18.15;38.79;98612.91;107927;1257;73911;-67
2023/02/18 11:46:20;;;;;;;12.70;3.60;;;;;;;18.29;38.52;98605.06;108005;1257;60813;-66
2023/02/18 11:48:49;;;;;;;14.30;3.20;;;;;;;17.96;38.51;98605.64;108067;1255;61772;-66
2023/02/18 11:51:18;;;;;;;10.50;3.40;;;;;;;18.00;39.23;98608.83;107955;1260;74253;-66
2023/02/18 11:54:03;;;;;;;9.50;2.90;;;;;;;18.35;38.40;98601.96;108029;1257;71497;-67
2023/02/18 11:56:34;;;;;;;9.60;3.00;;;;;;;18.45;37.95;98601.77;107900;1256;73801;-67
2023/02/18 11:59:03;;;;;;;12.20;3.10;;;;;;;19.04;37.26;98602.93;107913;1256;61384;-66
2023/02/18 12:02:08;;;;;;;4.20;2.00;;;;;;;19.13;36.51;98599.05;107933;1257;61300;-68
2023/02/18 12:04:42;;;;;;;10.00;3.60;;;;;;;19.30;35.79;98607.38;107717;1257;71929;-68
2023/02/18 12:07:22;;;;;;;8.50;2.70;;;;;;;18.97;35.29;98606.85;107996;1257;70645;-67
2023/02/18 12:10:11;;;;;;;6.70;2.70;;;;;;;18.77;35.02;98615.61;108003;1256;72496;-67
2023/02/18 12:12:51;;;;;;;7.70;2.30;;;;;;;18.21;36.22;98631.36;107898;1255;60538;-66
2023/02/18 12:15:40;;;;;;;12.30;2.60;;;;;;;17.68;38.58;98635.58;107976;1257;60571;-66
2023/02/18 12:18:08;;;;;;;5.20;1.90;;;;;;;17.95;38.42;98631.62;108042;1259;73024;-66
2023/02/18 12:20:48;;;;;;;12.00;2.50;;;;;;;17.56;38.80;98629.23;108016;1258;71319;-67
2023/02/18 12:23:34;;;;;;;8.10;2.20;;;;;;;17.98;39.03;98621.19;107892;1257;73596;-67
2023/02/18 12:26:29;;;;;;;9.20;2.80;;;;;;;18.16;38.52;98616.58;108090;1257;61042;-67
2023/02/18 12:29:04;;;;;;;12.50;2.90;;;;;;;18.39;37.48;98619.60;107945;1257;59214;-67
2023/02/18 12:31:51;;;;;;;10.10;2.70;;;;;;;18.02;37.82;98618.04;108099;1259;74199;-68
2023/02/18 12:34:42;;;;;;;6.50;2.80;;;;;;;18.08;37.94;98620.16;108013;1257;71379;-67
2023/02/18 12:37:45;;;;;;;11.60;3.00;;;;;;;18.87;37.01;98624.48;107751;1261;72995;-66
2023/02/18 12:40:42;;;;;;;14.50;3.10;;;;;;;18.88;36.26;98624.93;108066;1255;61262;-69
2023/02/18 12:43:17;;;;;;;9.10;2.90;;;;;;;18.24;36.17;98620.43;108135;1257;61334;-67
2023/02/18 12:46:00;;;;;;;12.10;3.60;;;;;;;18.51;35.67;98621.27;108082;1259;73953;-67
2023/02/18 12:48:47;;;;;;;12.20;3.30;;;;;;;18.53;35.31;98622.15;108095;1255;70764;-66
2023/02/18 12:52:03;;;;;;;10.60;3.10;;;;;;;17.90;35.79;98629.21;108024;1257;72368;-68
2023/02/18 12:54:50;;;;;;;12.20;3.20;;;;;;;18.44;35.21;98630.46;107969;1259;59807;-67
2023/02/18 12:57:29;;;;;;;10.50;2.60;;;;;;;18.25;35.02;98645.18;108070;1257;60112;-67
2023/02/18 13:00:21;;;;;;;13.70;3.00;;;;;;;17.73;36.92;98646.73;108057;1257;74163;-66
2023/02/18 13:03:31;;;;;;;12.10;2.80;;;;;;;18.31;36.43;98648.70;108106;1259;71372;-67
2023/02/18 13:06:10;;;;;;;12.90;2.50;;;;;;;17.82;37.42;98661.54;107957;1257;72387;-68
2023/02/18 13:09:03;;;;;;;10.90;2.70;;;;;;;17.66;38.72;98685.15;108014;1258;60878;-68
2023/02/18 13:12:04;;;;;;;9.50;2.90;;;;;;;16.90;40.91;98681.90;108021;1255;61150;-67
2023/02/18 13:14:44;;;;;;;9.90;2.50;;;;;;;16.88;41.31;98678.30;107936;1257;73032;-67
2023/02/18 13:17:12;;;;;;;11.30;3.30;;;;;;;16.97;40.82;98682.31;107945;1256;70490;-65
2023/02/18 13:19:43;;;;;;;11.40;3.10;;;;;;;16.86;41.41;98679.92;107795;1256;72431;-67
2023/02/18 13:22:11;;;;;;;18.80;5.10;;;;;;;17.13;40.95;98681.48;108051;1256;61595;-66
2023/02/18 13:24:42;;;;;;;21.00;5.00;;;;;;;16.87;41.38;98681.77;107930;1260;61103;-68
2023/02/18 13:27:14;;;;;;;;;;;;;;;16.90;41.53;98684.52;107886;1257;74353;-67
2023/02/18 13:30:04;;;;;;;9.60;3.30;;;;;;;16.66;41.21;98681.05;107980;1257;68381;-68
2023/02/18 13:32:58;;;;;;;14.40;4.40;;;;;;;16.78;41.05;98683.04;107901;1259;72698;-68
2023/02/18 13:36:20;;;;;;;13.70;3.70;;;;;;;16.58;41.31;98687.35;107915;1257;62333;-68
2023/02/18 13:39:00;;;;;;;10.50;3.10;;;;;;;16.88;40.50;98692.14;107471;1263;60395;-68
2023/02/18 13:41:29;;;;;;;12.60;3.60;;;;;;;16.91;40.29;98699.37;107919;1258;74094;-68
2023/02/18 13:44:01;;;;;;;9.20;2.70;;;;;;;16.94;40.37;98703.52;107720;1257;70686;-67
2023/02/18 13:46:29;;;;;;;10.10;3.40;;;;;;;17.10;40.14;98701.29;107866;1256;73699;-67
2023/02/18 13:49:01;;;;;;;11.70;3.10;;;;;;;16.77;40.21;98708.11;108070;1256;61220;-67
2023/02/18 13:51:39;;;;;;;14.00;3.70;;;;;;;16.67;40.57;98710.95;107961;1256;60525;-67
2023/02/18 13:54:10;;;;;;;18.20;5.30;;;;;;;16.80;40.06;98719.79;107961;1257;75088;-67
2023/02/18 13:56:41;;;;;;;18.10;5.40;;;;;;;17.17;39.36;98716.73;107913;1257;71025;-68